sensor_id;sensor_type;location;lat;lon;timestamp;P1;durP1;ratioP1;P2;durP2;ratioP2
26612;SDS011;14248;57.652;11.908;2022-12-07T00:00:53;6.95;;;4.43;;
26612;SDS011;14248;57.652;11.908;2022-12-07T00:03:19;8.85;;;4.78;;
26612;SDS011;14248;57.652;11.908;2022-12-07T00:05:45;7.07;;;4.70;;
26612;SDS011;14248;57.652;11.908;2022-12-07T00:08:11;8.18;;;4.47;;
26612;SDS011;14248;57.652;11.908;2022-12-07T00:10:37;7.45;;;4.38;;
26612;SDS011;14248;57.652;11.908;2022-12-07T00:13:03;5.53;;;3.60;;
26612;SDS011;14248;57.652;11.908;2022-12-07T00:15:29;4.97;;;3.38;;
26612;SDS011;14248;57.652;11.908;2022-12-07T00:17:55;5.18;;;2.97;;
26612;SDS011;14248;57.652;11.908;2022-12-07T00:20:21;4.53;;;3.13;;
26612;SDS011;14248;57.652;11.908;2022-12-07T00:22:47;5.88;;;3.75;;
26612;SDS011;14248;57.652;11.908;2022-12-07T00:25:13;5.28;;;3.50;;
26612;SDS011;14248;57.652;11.908;2022-12-07T00:27:39;6.15;;;3.97;;
26612;SDS011;14248;57.652;11.908;2022-12-07T00:30:05;7.80;;;4.25;;
26612;SDS011;14248;57.652;11.908;2022-12-07T00:32:32;5.78;;;3.83;;
26612;SDS011;14248;57.652;11.908;2022-12-07T00:34:58;6.35;;;3.85;;
26612;SDS011;14248;57.652;11.908;2022-12-07T00:37:24;6.05;;;3.15;;
26612;SDS011;14248;57.652;11.908;2022-12-07T00:39:50;5.28;;;2.90;;
26612;SDS011;14248;57.652;11.908;2022-12-07T00:42:16;4.65;;;3.03;;
26612;SDS011;14248;57.652;11.908;2022-12-07T00:44:42;7.15;;;3.53;;
26612;SDS011;14248;57.652;11.908;2022-12-07T00:47:09;4.07;;;2.92;;
26612;SDS011;14248;57.652;11.908;2022-12-07T00:49:35;4.90;;;2.85;;
26612;SDS011;14248;57.652;11.908;2022-12-07T00:52:01;6.03;;;3.08;;
26612;SDS011;14248;57.652;11.908;2022-12-07T00:54:28;4.20;;;3.30;;
26612;SDS011;14248;57.652;11.908;2022-12-07T00:56:54;4.47;;;2.85;;
26612;SDS011;14248;57.652;11.908;2022-12-07T00:59:21;3.95;;;2.80;;
26612;SDS011;14248;57.652;11.908;2022-12-07T01:01:47;4.93;;;3.33;;
26612;SDS011;14248;57.652;11.908;2022-12-07T01:04:13;4.70;;;2.95;;
26612;SDS011;14248;57.652;11.908;2022-12-07T01:06:39;4.78;;;3.22;;
26612;SDS011;14248;57.652;11.908;2022-12-07T01:09:05;5.97;;;3.65;;
26612;SDS011;14248;57.652;11.908;2022-12-07T01:11:32;5.05;;;3.10;;
26612;SDS011;14248;57.652;11.908;2022-12-07T01:13:59;4.32;;;3.08;;
26612;SDS011;14248;57.652;11.908;2022-12-07T01:16:26;4.55;;;2.70;;
26612;SDS011;14248;57.652;11.908;2022-12-07T01:18:53;3.17;;;2.53;;
26612;SDS011;14248;57.652;11.908;2022-12-07T01:21:21;4.72;;;3.53;;
26612;SDS011;14248;57.652;11.908;2022-12-07T01:23:47;4.88;;;3.30;;
26612;SDS011;14248;57.652;11.908;2022-12-07T01:26:15;5.40;;;3.17;;
26612;SDS011;14248;57.652;11.908;2022-12-07T01:28:42;5.78;;;3.08;;
26612;SDS011;14248;57.652;11.908;2022-12-07T01:31:09;5.45;;;2.88;;
26612;SDS011;14248;57.652;11.908;2022-12-07T01:33:36;4.75;;;2.83;;
26612;SDS011;14248;57.652;11.908;2022-12-07T01:38:32;3.55;;;2.65;;
26612;SDS011;14248;57.652;11.908;2022-12-07T01:40:59;4.63;;;2.78;;
26612;SDS011;14248;57.652;11.908;2022-12-07T01:43:26;5.85;;;3.22;;
26612;SDS011;14248;57.652;11.908;2022-12-07T01:45:53;5.38;;;3.10;;
26612;SDS011;14248;57.652;11.908;2022-12-07T01:48:24;4.85;;;3.05;;
26612;SDS011;14248;57.652;11.908;2022-12-07T01:50:51;5.03;;;3.28;;
26612;SDS011;14248;57.652;11.908;2022-12-07T01:53:18;3.15;;;2.42;;
26612;SDS011;14248;57.652;11.908;2022-12-07T01:55:45;3.05;;;2.30;;
26612;SDS011;14248;57.652;11.908;2022-12-07T01:58:12;4.25;;;2.50;;
26612;SDS011;14248;57.652;11.908;2022-12-07T02:00:39;3.35;;;2.22;;
26612;SDS011;14248;57.652;11.908;2022-12-07T02:03:08;2.28;;;2.08;;
26612;SDS011;14248;57.652;11.908;2022-12-07T02:05:35;3.47;;;2.50;;
26612;SDS011;14248;57.652;11.908;2022-12-07T02:08:02;3.13;;;2.30;;
26612;SDS011;14248;57.652;11.908;2022-12-07T02:10:29;3.83;;;2.60;;
26612;SDS011;14248;57.652;11.908;2022-12-07T02:12:58;2.58;;;2.10;;
26612;SDS011;14248;57.652;11.908;2022-12-07T02:16:26;3.80;;;2.30;;
26612;SDS011;14248;57.652;11.908;2022-12-07T02:21:11;2.85;;;1.92;;
26612;SDS011;14248;57.652;11.908;2022-12-07T02:26:26;3.05;;;2.30;;
26612;SDS011;14248;57.652;11.908;2022-12-07T02:31:34;2.63;;;2.10;;
26612;SDS011;14248;57.652;11.908;2022-12-07T02:34:09;4.38;;;3.00;;
26612;SDS011;14248;57.652;11.908;2022-12-07T02:36:39;5.18;;;2.40;;
26612;SDS011;14248;57.652;11.908;2022-12-07T02:41:48;3.70;;;2.53;;
26612;SDS011;14248;57.652;11.908;2022-12-07T02:44:17;4.10;;;2.88;;
26612;SDS011;14248;57.652;11.908;2022-12-07T02:46:53;3.58;;;2.53;;
26612;SDS011;14248;57.652;11.908;2022-12-07T02:49:23;2.80;;;2.05;;
26612;SDS011;14248;57.652;11.908;2022-12-07T02:51:50;2.20;;;1.77;;
26612;SDS011;14248;57.652;11.908;2022-12-07T02:54:18;3.30;;;1.90;;
26612;SDS011;14248;57.652;11.908;2022-12-07T03:07:06;4.72;;;2.33;;
26612;SDS011;14248;57.652;11.908;2022-12-07T03:12:37;4.35;;;2.55;;
26612;SDS011;14248;57.652;11.908;2022-12-07T03:15:09;4.20;;;2.65;;
26612;SDS011;14248;57.652;11.908;2022-12-07T03:17:37;5.15;;;2.63;;
26612;SDS011;14248;57.652;11.908;2022-12-07T03:20:05;4.90;;;2.88;;
26612;SDS011;14248;57.652;11.908;2022-12-07T03:22:34;6.22;;;3.35;;
26612;SDS011;14248;57.652;11.908;2022-12-07T03:25:03;5.93;;;3.40;;
26612;SDS011;14248;57.652;11.908;2022-12-07T03:27:38;6.85;;;3.33;;
26612;SDS011;14248;57.652;11.908;2022-12-07T03:30:09;5.82;;;2.83;;
26612;SDS011;14248;57.652;11.908;2022-12-07T03:35:16;4.63;;;3.22;;
26612;SDS011;14248;57.652;11.908;2022-12-07T03:37:46;6.07;;;2.95;;
26612;SDS011;14248;57.652;11.908;2022-12-07T03:42:39;6.50;;;2.95;;
26612;SDS011;14248;57.652;11.908;2022-12-07T03:45:06;4.25;;;2.70;;
26612;SDS011;14248;57.652;11.908;2022-12-07T03:47:33;4.28;;;2.50;;
26612;SDS011;14248;57.652;11.908;2022-12-07T03:50:12;3.42;;;2.25;;
26612;SDS011;14248;57.652;11.908;2022-12-07T03:52:40;3.60;;;2.03;;
26612;SDS011;14248;57.652;11.908;2022-12-07T03:55:20;2.38;;;1.52;;
26612;SDS011;14248;57.652;11.908;2022-12-07T03:57:49;3.53;;;1.80;;
26612;SDS011;14248;57.652;11.908;2022-12-07T04:00:16;2.53;;;2.13;;
26612;SDS011;14248;57.652;11.908;2022-12-07T04:02:43;4.03;;;2.03;;
26612;SDS011;14248;57.652;11.908;2022-12-07T04:05:09;3.08;;;2.25;;
26612;SDS011;14248;57.652;11.908;2022-12-07T04:07:35;4.75;;;2.50;;
26612;SDS011;14248;57.652;11.908;2022-12-07T04:10:02;5.80;;;2.70;;
26612;SDS011;14248;57.652;11.908;2022-12-07T04:12:28;5.30;;;2.90;;
26612;SDS011;14248;57.652;11.908;2022-12-07T04:14:54;3.88;;;2.35;;
26612;SDS011;14248;57.652;11.908;2022-12-07T04:17:20;3.13;;;2.42;;
26612;SDS011;14248;57.652;11.908;2022-12-07T04:19:46;4.88;;;2.72;;
26612;SDS011;14248;57.652;11.908;2022-12-07T04:22:12;5.40;;;2.80;;
26612;SDS011;14248;57.652;11.908;2022-12-07T04:24:38;3.30;;;2.30;;
26612;SDS011;14248;57.652;11.908;2022-12-07T04:27:04;3.90;;;2.35;;
26612;SDS011;14248;57.652;11.908;2022-12-07T04:29:30;4.30;;;2.50;;
26612;SDS011;14248;57.652;11.908;2022-12-07T04:31:56;3.67;;;2.25;;
26612;SDS011;14248;57.652;11.908;2022-12-07T04:34:22;4.60;;;2.28;;
26612;SDS011;14248;57.652;11.908;2022-12-07T04:36:48;4.82;;;2.08;;
26612;SDS011;14248;57.652;11.908;2022-12-07T04:39:19;3.45;;;1.90;;
26612;SDS011;14248;57.652;11.908;2022-12-07T04:41:45;2.47;;;1.88;;
26612;SDS011;14248;57.652;11.908;2022-12-07T04:44:11;3.42;;;2.13;;
26612;SDS011;14248;57.652;11.908;2022-12-07T04:46:39;2.75;;;2.20;;
26612;SDS011;14248;57.652;11.908;2022-12-07T04:49:05;2.92;;;1.80;;
26612;SDS011;14248;57.652;11.908;2022-12-07T04:51:31;2.67;;;1.75;;
26612;SDS011;14248;57.652;11.908;2022-12-07T04:53:57;3.80;;;1.80;;
26612;SDS011;14248;57.652;11.908;2022-12-07T04:56:23;2.92;;;1.85;;
26612;SDS011;14248;57.652;11.908;2022-12-07T04:58:51;3.90;;;1.92;;
26612;SDS011;14248;57.652;11.908;2022-12-07T05:01:17;4.22;;;1.98;;
26612;SDS011;14248;57.652;11.908;2022-12-07T05:03:43;4.85;;;1.95;;
26612;SDS011;14248;57.652;11.908;2022-12-07T05:06:10;3.28;;;2.00;;
26612;SDS011;14248;57.652;11.908;2022-12-07T05:08:36;2.30;;;1.55;;
26612;SDS011;14248;57.652;11.908;2022-12-07T05:11:03;4.28;;;1.45;;
26612;SDS011;14248;57.652;11.908;2022-12-07T05:13:30;2.83;;;1.33;;
26612;SDS011;14248;57.652;11.908;2022-12-07T05:15:56;2.75;;;0.98;;
26612;SDS011;14248;57.652;11.908;2022-12-07T05:18:22;1.75;;;1.10;;
26612;SDS011;14248;57.652;11.908;2022-12-07T05:20:48;2.08;;;1.05;;
26612;SDS011;14248;57.652;11.908;2022-12-07T05:23:16;2.10;;;0.98;;
26612;SDS011;14248;57.652;11.908;2022-12-07T05:25:42;2.22;;;1.10;;
26612;SDS011;14248;57.652;11.908;2022-12-07T05:28:08;1.23;;;0.70;;
26612;SDS011;14248;57.652;11.908;2022-12-07T05:30:34;1.42;;;0.80;;
26612;SDS011;14248;57.652;11.908;2022-12-07T05:33:00;1.38;;;0.60;;
26612;SDS011;14248;57.652;11.908;2022-12-07T05:35:26;1.30;;;0.50;;
26612;SDS011;14248;57.652;11.908;2022-12-07T05:37:52;1.52;;;0.57;;
26612;SDS011;14248;57.652;11.908;2022-12-07T05:40:18;1.30;;;0.80;;
26612;SDS011;14248;57.652;11.908;2022-12-07T05:42:44;2.20;;;0.70;;
26612;SDS011;14248;57.652;11.908;2022-12-07T05:45:10;1.58;;;0.60;;
26612;SDS011;14248;57.652;11.908;2022-12-07T05:47:36;0.88;;;0.45;;
26612;SDS011;14248;57.652;11.908;2022-12-07T05:50:03;1.88;;;0.75;;
26612;SDS011;14248;57.652;11.908;2022-12-07T05:52:29;1.10;;;0.70;;
26612;SDS011;14248;57.652;11.908;2022-12-07T05:54:55;2.45;;;0.80;;
26612;SDS011;14248;57.652;11.908;2022-12-07T05:57:21;1.27;;;0.60;;
26612;SDS011;14248;57.652;11.908;2022-12-07T05:59:47;2.15;;;0.95;;
26612;SDS011;14248;57.652;11.908;2022-12-07T06:02:14;1.80;;;1.05;;
26612;SDS011;14248;57.652;11.908;2022-12-07T06:04:41;1.92;;;1.05;;
26612;SDS011;14248;57.652;11.908;2022-12-07T06:07:08;2.35;;;0.90;;
26612;SDS011;14248;57.652;11.908;2022-12-07T06:09:34;1.95;;;1.35;;
26612;SDS011;14248;57.652;11.908;2022-12-07T06:12:01;3.03;;;1.38;;
26612;SDS011;14248;57.652;11.908;2022-12-07T06:14:45;2.88;;;1.63;;
26612;SDS011;14248;57.652;11.908;2022-12-07T06:17:11;3.28;;;1.60;;
26612;SDS011;14248;57.652;11.908;2022-12-07T06:19:38;3.03;;;1.30;;
26612;SDS011;14248;57.652;11.908;2022-12-07T06:22:04;3.15;;;1.30;;
26612;SDS011;14248;57.652;11.908;2022-12-07T06:24:31;2.45;;;1.42;;
26612;SDS011;14248;57.652;11.908;2022-12-07T06:26:57;2.72;;;1.27;;
26612;SDS011;14248;57.652;11.908;2022-12-07T06:29:23;2.53;;;1.48;;
26612;SDS011;14248;57.652;11.908;2022-12-07T06:31:50;4.40;;;1.55;;
26612;SDS011;14248;57.652;11.908;2022-12-07T06:34:17;2.80;;;1.13;;
26612;SDS011;14248;57.652;11.908;2022-12-07T06:36:43;3.03;;;1.23;;
26612;SDS011;14248;57.652;11.908;2022-12-07T06:39:10;3.42;;;1.55;;
26612;SDS011;14248;57.652;11.908;2022-12-07T06:41:37;2.15;;;1.20;;
26612;SDS011;14248;57.652;11.908;2022-12-07T06:44:03;1.88;;;1.45;;
26612;SDS011;14248;57.652;11.908;2022-12-07T06:46:29;3.38;;;1.80;;
26612;SDS011;14248;57.652;11.908;2022-12-07T06:48:55;2.83;;;1.67;;
26612;SDS011;14248;57.652;11.908;2022-12-07T06:51:22;2.10;;;1.70;;
26612;SDS011;14248;57.652;11.908;2022-12-07T06:53:48;4.20;;;1.63;;
26612;SDS011;14248;57.652;11.908;2022-12-07T06:56:14;4.63;;;1.70;;
26612;SDS011;14248;57.652;11.908;2022-12-07T06:58:40;2.75;;;1.73;;
26612;SDS011;14248;57.652;11.908;2022-12-07T07:01:10;2.33;;;1.23;;
26612;SDS011;14248;57.652;11.908;2022-12-07T07:03:36;4.75;;;1.48;;
26612;SDS011;14248;57.652;11.908;2022-12-07T07:06:02;1.70;;;1.23;;
26612;SDS011;14248;57.652;11.908;2022-12-07T07:08:28;1.40;;;1.17;;
26612;SDS011;14248;57.652;11.908;2022-12-07T07:10:54;4.43;;;1.60;;
26612;SDS011;14248;57.652;11.908;2022-12-07T07:13:20;2.33;;;1.50;;
26612;SDS011;14248;57.652;11.908;2022-12-07T07:15:46;4.00;;;1.30;;
26612;SDS011;14248;57.652;11.908;2022-12-07T07:18:12;2.88;;;1.17;;
26612;SDS011;14248;57.652;11.908;2022-12-07T07:20:39;2.45;;;1.30;;
26612;SDS011;14248;57.652;11.908;2022-12-07T07:23:05;3.45;;;0.95;;
26612;SDS011;14248;57.652;11.908;2022-12-07T07:25:32;2.25;;;0.93;;
26612;SDS011;14248;57.652;11.908;2022-12-07T07:27:58;3.35;;;1.00;;
26612;SDS011;14248;57.652;11.908;2022-12-07T07:30:24;2.08;;;1.13;;
26612;SDS011;14248;57.652;11.908;2022-12-07T07:32:50;1.75;;;1.10;;
26612;SDS011;14248;57.652;11.908;2022-12-07T07:35:16;1.25;;;0.88;;
26612;SDS011;14248;57.652;11.908;2022-12-07T07:37:42;1.55;;;1.02;;
26612;SDS011;14248;57.652;11.908;2022-12-07T07:40:09;2.65;;;1.25;;
26612;SDS011;14248;57.652;11.908;2022-12-07T07:42:35;1.27;;;0.82;;
26612;SDS011;14248;57.652;11.908;2022-12-07T07:45:01;3.53;;;1.13;;
26612;SDS011;14248;57.652;11.908;2022-12-07T07:47:27;2.35;;;1.20;;
26612;SDS011;14248;57.652;11.908;2022-12-07T07:49:54;1.80;;;1.00;;
26612;SDS011;14248;57.652;11.908;2022-12-07T07:52:20;3.95;;;1.02;;
26612;SDS011;14248;57.652;11.908;2022-12-07T07:54:46;1.90;;;1.23;;
26612;SDS011;14248;57.652;11.908;2022-12-07T07:57:13;1.48;;;1.17;;
26612;SDS011;14248;57.652;11.908;2022-12-07T07:59:39;2.50;;;1.55;;
26612;SDS011;14248;57.652;11.908;2022-12-07T08:02:05;3.30;;;1.90;;
26612;SDS011;14248;57.652;11.908;2022-12-07T08:04:31;2.33;;;1.70;;
26612;SDS011;14248;57.652;11.908;2022-12-07T08:06:57;1.88;;;1.50;;
26612;SDS011;14248;57.652;11.908;2022-12-07T08:09:23;5.25;;;1.70;;
26612;SDS011;14248;57.652;11.908;2022-12-07T08:11:49;3.78;;;1.50;;
26612;SDS011;14248;57.652;11.908;2022-12-07T08:14:15;2.53;;;1.30;;
26612;SDS011;14248;57.652;11.908;2022-12-07T08:16:41;1.58;;;1.40;;
26612;SDS011;14248;57.652;11.908;2022-12-07T08:19:07;1.92;;;1.45;;
26612;SDS011;14248;57.652;11.908;2022-12-07T08:21:33;2.47;;;1.55;;
26612;SDS011;14248;57.652;11.908;2022-12-07T08:23:59;3.55;;;1.60;;
26612;SDS011;14248;57.652;11.908;2022-12-07T08:26:25;1.40;;;1.05;;
26612;SDS011;14248;57.652;11.908;2022-12-07T08:28:52;2.35;;;1.60;;
26612;SDS011;14248;57.652;11.908;2022-12-07T08:31:18;1.25;;;1.10;;
26612;SDS011;14248;57.652;11.908;2022-12-07T08:33:45;1.90;;;1.00;;
26612;SDS011;14248;57.652;11.908;2022-12-07T08:36:11;3.55;;;1.48;;
26612;SDS011;14248;57.652;11.908;2022-12-07T08:38:38;1.88;;;1.10;;
26612;SDS011;14248;57.652;11.908;2022-12-07T08:41:05;2.40;;;1.00;;
26612;SDS011;14248;57.652;11.908;2022-12-07T08:43:31;1.10;;;0.80;;
26612;SDS011;14248;57.652;11.908;2022-12-07T08:48:30;0.77;;;0.75;;
26612;SDS011;14248;57.652;11.908;2022-12-07T08:50:57;3.10;;;0.98;;
26612;SDS011;14248;57.652;11.908;2022-12-07T08:53:23;1.77;;;1.00;;
26612;SDS011;14248;57.652;11.908;2022-12-07T08:55:49;1.67;;;0.98;;
26612;SDS011;14248;57.652;11.908;2022-12-07T08:58:15;1.83;;;1.10;;
26612;SDS011;14248;57.652;11.908;2022-12-07T09:00:42;0.73;;;0.63;;
26612;SDS011;14248;57.652;11.908;2022-12-07T09:03:08;1.73;;;1.10;;
26612;SDS011;14248;57.652;11.908;2022-12-07T09:05:34;0.50;;;0.45;;
26612;SDS011;14248;57.652;11.908;2022-12-07T09:08:01;2.95;;;0.80;;
26612;SDS011;14248;57.652;11.908;2022-12-07T09:10:28;1.95;;;0.98;;
26612;SDS011;14248;57.652;11.908;2022-12-07T09:12:54;1.27;;;0.70;;
26612;SDS011;14248;57.652;11.908;2022-12-07T09:15:20;1.13;;;0.73;;
26612;SDS011;14248;57.652;11.908;2022-12-07T09:17:46;1.90;;;0.90;;
26612;SDS011;14248;57.652;11.908;2022-12-07T09:20:12;1.00;;;0.70;;
26612;SDS011;14248;57.652;11.908;2022-12-07T09:22:38;1.45;;;0.90;;
26612;SDS011;14248;57.652;11.908;2022-12-07T09:25:04;1.85;;;0.80;;
26612;SDS011;14248;57.652;11.908;2022-12-07T09:27:30;1.52;;;0.63;;
26612;SDS011;14248;57.652;11.908;2022-12-07T09:29:56;2.05;;;0.90;;
26612;SDS011;14248;57.652;11.908;2022-12-07T09:32:22;2.67;;;1.05;;
26612;SDS011;14248;57.652;11.908;2022-12-07T09:34:49;0.82;;;0.60;;
26612;SDS011;14248;57.652;11.908;2022-12-07T09:37:15;2.50;;;0.70;;
26612;SDS011;14248;57.652;11.908;2022-12-07T09:39:41;1.48;;;0.75;;
26612;SDS011;14248;57.652;11.908;2022-12-07T09:42:07;2.10;;;0.98;;
26612;SDS011;14248;57.652;11.908;2022-12-07T09:44:36;1.70;;;0.90;;
26612;SDS011;14248;57.652;11.908;2022-12-07T09:47:02;1.98;;;1.00;;
26612;SDS011;14248;57.652;11.908;2022-12-07T09:49:30;2.30;;;0.80;;
26612;SDS011;14248;57.652;11.908;2022-12-07T09:54:39;1.00;;;0.88;;
26612;SDS011;14248;57.652;11.908;2022-12-07T09:57:08;2.70;;;1.00;;
26612;SDS011;14248;57.652;11.908;2022-12-07T09:59:37;3.90;;;1.00;;
26612;SDS011;14248;57.652;11.908;2022-12-07T10:02:23;2.47;;;1.00;;
26612;SDS011;14248;57.652;11.908;2022-12-07T10:04:50;2.05;;;1.23;;
26612;SDS011;14248;57.652;11.908;2022-12-07T10:07:16;2.85;;;0.98;;
26612;SDS011;14248;57.652;11.908;2022-12-07T10:09:42;3.92;;;1.50;;
26612;SDS011;14248;57.652;11.908;2022-12-07T10:12:09;3.30;;;1.10;;
26612;SDS011;14248;57.652;11.908;2022-12-07T10:14:37;2.30;;;0.90;;
26612;SDS011;14248;57.652;11.908;2022-12-07T10:17:51;2.47;;;1.00;;
26612;SDS011;14248;57.652;11.908;2022-12-07T10:19:50;1.70;;;1.17;;
26612;SDS011;14248;57.652;11.908;2022-12-07T10:22:16;5.25;;;1.75;;
26612;SDS011;14248;57.652;11.908;2022-12-07T10:24:43;1.73;;;1.00;;
26612;SDS011;14248;57.652;11.908;2022-12-07T10:30:07;2.42;;;0.93;;
26612;SDS011;14248;57.652;11.908;2022-12-07T10:32:35;1.27;;;0.88;;
26612;SDS011;14248;57.652;11.908;2022-12-07T10:37:47;1.45;;;0.75;;
26612;SDS011;14248;57.652;11.908;2022-12-07T10:40:35;1.77;;;0.98;;
26612;SDS011;14248;57.652;11.908;2022-12-07T10:43:20;3.33;;;1.00;;
26612;SDS011;14248;57.652;11.908;2022-12-07T10:48:24;2.05;;;1.00;;
26612;SDS011;14248;57.652;11.908;2022-12-07T10:56:03;3.08;;;1.00;;
26612;SDS011;14248;57.652;11.908;2022-12-07T11:12:16;1.73;;;0.80;;
26612;SDS011;14248;57.652;11.908;2022-12-07T11:22:37;3.00;;;0.90;;
26612;SDS011;14248;57.652;11.908;2022-12-07T11:30:22;3.00;;;0.98;;
26612;SDS011;14248;57.652;11.908;2022-12-07T11:38:14;4.75;;;1.20;;
26612;SDS011;14248;57.652;11.908;2022-12-07T11:40:40;4.00;;;1.08;;
26612;SDS011;14248;57.652;11.908;2022-12-07T11:43:26;3.30;;;0.88;;
26612;SDS011;14248;57.652;11.908;2022-12-07T11:45:56;4.18;;;1.20;;
26612;SDS011;14248;57.652;11.908;2022-12-07T11:48:33;2.35;;;1.00;;
26612;SDS011;14248;57.652;11.908;2022-12-07T11:51:00;2.20;;;0.80;;
26612;SDS011;14248;57.652;11.908;2022-12-07T11:53:36;2.00;;;1.10;;
26612;SDS011;14248;57.652;11.908;2022-12-07T12:03:45;2.03;;;0.65;;
26612;SDS011;14248;57.652;11.908;2022-12-07T12:06:11;2.95;;;0.90;;
26612;SDS011;14248;57.652;11.908;2022-12-07T12:08:42;3.90;;;0.88;;
26612;SDS011;14248;57.652;11.908;2022-12-07T12:11:18;1.65;;;0.82;;
26612;SDS011;14248;57.652;11.908;2022-12-07T12:14:02;4.63;;;1.00;;
26612;SDS011;14248;57.652;11.908;2022-12-07T12:21:35;3.22;;;1.00;;
26612;SDS011;14248;57.652;11.908;2022-12-07T12:26:29;4.63;;;1.13;;
26612;SDS011;14248;57.652;11.908;2022-12-07T12:28:57;2.92;;;1.08;;
26612;SDS011;14248;57.652;11.908;2022-12-07T12:33:53;2.63;;;1.00;;
26612;SDS011;14248;57.652;11.908;2022-12-07T12:39:08;4.43;;;1.48;;
26612;SDS011;14248;57.652;11.908;2022-12-07T12:54:57;3.60;;;1.40;;
26612;SDS011;14248;57.652;11.908;2022-12-07T12:57:26;3.53;;;1.00;;
26612;SDS011;14248;57.652;11.908;2022-12-07T13:07:13;2.63;;;0.90;;
26612;SDS011;14248;57.652;11.908;2022-12-07T13:09:59;2.25;;;0.98;;
26612;SDS011;14248;57.652;11.908;2022-12-07T13:12:25;2.78;;;1.05;;
26612;SDS011;14248;57.652;11.908;2022-12-07T13:14:55;2.63;;;1.10;;
26612;SDS011;14248;57.652;11.908;2022-12-07T13:20:01;3.00;;;0.82;;
26612;SDS011;14248;57.652;11.908;2022-12-07T13:25:05;4.03;;;0.80;;
26612;SDS011;14248;57.652;11.908;2022-12-07T13:27:33;1.90;;;0.68;;
26612;SDS011;14248;57.652;11.908;2022-12-07T13:30:00;1.35;;;0.80;;
26612;SDS011;14248;57.652;11.908;2022-12-07T13:32:27;1.98;;;0.90;;
26612;SDS011;14248;57.652;11.908;2022-12-07T13:34:53;5.38;;;1.05;;
26612;SDS011;14248;57.652;11.908;2022-12-07T13:39:52;1.23;;;0.80;;
26612;SDS011;14248;57.652;11.908;2022-12-07T13:42:24;2.70;;;0.60;;
26612;SDS011;14248;57.652;11.908;2022-12-07T13:44:51;1.48;;;0.85;;
26612;SDS011;14248;57.652;11.908;2022-12-07T13:47:18;2.05;;;0.60;;
26612;SDS011;14248;57.652;11.908;2022-12-07T13:49:51;2.38;;;0.68;;
26612;SDS011;14248;57.652;11.908;2022-12-07T13:52:24;3.03;;;0.85;;
26612;SDS011;14248;57.652;11.908;2022-12-07T13:55:01;1.17;;;0.80;;
26612;SDS011;14248;57.652;11.908;2022-12-07T13:57:29;5.15;;;0.75;;
26612;SDS011;14248;57.652;11.908;2022-12-07T13:59:59;1.45;;;0.60;;
26612;SDS011;14248;57.652;11.908;2022-12-07T14:02:29;1.60;;;0.70;;
26612;SDS011;14248;57.652;11.908;2022-12-07T14:05:09;1.60;;;0.52;;
26612;SDS011;14248;57.652;11.908;2022-12-07T14:07:40;1.35;;;0.70;;
26612;SDS011;14248;57.652;11.908;2022-12-07T14:10:27;3.00;;;0.75;;
26612;SDS011;14248;57.652;11.908;2022-12-07T14:12:54;1.38;;;0.63;;
26612;SDS011;14248;57.652;11.908;2022-12-07T14:15:21;1.27;;;0.47;;
26612;SDS011;14248;57.652;11.908;2022-12-07T14:17:51;1.80;;;0.57;;
26612;SDS011;14248;57.652;11.908;2022-12-07T14:20:37;3.67;;;0.80;;
26612;SDS011;14248;57.652;11.908;2022-12-07T14:23:04;2.05;;;0.52;;
26612;SDS011;14248;57.652;11.908;2022-12-07T14:28:25;3.15;;;0.80;;
26612;SDS011;14248;57.652;11.908;2022-12-07T14:30:51;1.42;;;0.80;;
26612;SDS011;14248;57.652;11.908;2022-12-07T14:33:17;1.65;;;0.60;;
26612;SDS011;14248;57.652;11.908;2022-12-07T14:35:44;3.72;;;1.00;;
26612;SDS011;14248;57.652;11.908;2022-12-07T14:38:10;1.77;;;0.98;;
26612;SDS011;14248;57.652;11.908;2022-12-07T14:40:36;2.15;;;0.82;;
26612;SDS011;14248;57.652;11.908;2022-12-07T14:43:06;3.33;;;0.85;;
26612;SDS011;14248;57.652;11.908;2022-12-07T14:45:34;0.82;;;0.50;;
26612;SDS011;14248;57.652;11.908;2022-12-07T14:48:00;1.77;;;0.70;;
26612;SDS011;14248;57.652;11.908;2022-12-07T14:50:26;1.58;;;0.75;;
26612;SDS011;14248;57.652;11.908;2022-12-07T14:52:56;3.83;;;0.80;;
26612;SDS011;14248;57.652;11.908;2022-12-07T14:55:24;1.73;;;0.77;;
26612;SDS011;14248;57.652;11.908;2022-12-07T14:57:51;2.90;;;0.90;;
26612;SDS011;14248;57.652;11.908;2022-12-07T15:00:17;1.63;;;0.85;;
26612;SDS011;14248;57.652;11.908;2022-12-07T15:02:44;2.28;;;0.80;;
26612;SDS011;14248;57.652;11.908;2022-12-07T15:05:10;1.50;;;0.63;;
26612;SDS011;14248;57.652;11.908;2022-12-07T15:07:36;2.28;;;0.77;;
26612;SDS011;14248;57.652;11.908;2022-12-07T15:10:03;2.10;;;0.90;;
26612;SDS011;14248;57.652;11.908;2022-12-07T15:12:29;3.60;;;0.90;;
26612;SDS011;14248;57.652;11.908;2022-12-07T15:14:55;1.25;;;0.75;;
26612;SDS011;14248;57.652;11.908;2022-12-07T15:17:21;0.93;;;0.47;;
26612;SDS011;14248;57.652;11.908;2022-12-07T15:19:47;1.02;;;0.60;;
26612;SDS011;14248;57.652;11.908;2022-12-07T15:22:13;1.20;;;0.65;;
26612;SDS011;14248;57.652;11.908;2022-12-07T15:24:39;2.13;;;0.70;;
26612;SDS011;14248;57.652;11.908;2022-12-07T15:27:05;1.35;;;0.45;;
26612;SDS011;14248;57.652;11.908;2022-12-07T15:29:31;2.35;;;0.70;;
26612;SDS011;14248;57.652;11.908;2022-12-07T15:31:57;2.13;;;0.70;;
26612;SDS011;14248;57.652;11.908;2022-12-07T15:34:26;1.95;;;0.70;;
26612;SDS011;14248;57.652;11.908;2022-12-07T15:36:53;2.55;;;0.85;;
26612;SDS011;14248;57.652;11.908;2022-12-07T15:39:19;1.90;;;1.02;;
26612;SDS011;14248;57.652;11.908;2022-12-07T15:41:46;1.25;;;0.88;;
26612;SDS011;14248;57.652;11.908;2022-12-07T15:44:12;1.13;;;0.90;;
26612;SDS011;14248;57.652;11.908;2022-12-07T15:46:58;1.02;;;0.65;;
26612;SDS011;14248;57.652;11.908;2022-12-07T15:49:24;1.92;;;0.90;;
26612;SDS011;14248;57.652;11.908;2022-12-07T15:51:50;1.95;;;0.93;;
26612;SDS011;14248;57.652;11.908;2022-12-07T15:54:18;1.17;;;0.88;;
26612;SDS011;14248;57.652;11.908;2022-12-07T15:56:44;1.25;;;0.60;;
26612;SDS011;14248;57.652;11.908;2022-12-07T15:59:10;1.70;;;0.80;;
26612;SDS011;14248;57.652;11.908;2022-12-07T16:01:36;2.75;;;1.10;;
26612;SDS011;14248;57.652;11.908;2022-12-07T16:04:02;3.05;;;1.08;;
26612;SDS011;14248;57.652;11.908;2022-12-07T16:06:28;1.00;;;0.80;;
26612;SDS011;14248;57.652;11.908;2022-12-07T16:08:54;2.47;;;1.00;;
26612;SDS011;14248;57.652;11.908;2022-12-07T16:11:20;1.80;;;0.85;;
26612;SDS011;14248;57.652;11.908;2022-12-07T16:13:46;3.33;;;1.00;;
26612;SDS011;14248;57.652;11.908;2022-12-07T16:16:14;2.05;;;0.80;;
26612;SDS011;14248;57.652;11.908;2022-12-07T16:18:41;1.73;;;0.82;;
26612;SDS011;14248;57.652;11.908;2022-12-07T16:21:07;2.90;;;0.77;;
26612;SDS011;14248;57.652;11.908;2022-12-07T16:23:33;1.55;;;1.05;;
26612;SDS011;14248;57.652;11.908;2022-12-07T16:28:31;2.15;;;0.95;;
26612;SDS011;14248;57.652;11.908;2022-12-07T16:31:01;3.17;;;1.23;;
26612;SDS011;14248;57.652;11.908;2022-12-07T16:33:28;1.10;;;0.90;;
26612;SDS011;14248;57.652;11.908;2022-12-07T16:35:54;1.42;;;0.90;;
26612;SDS011;14248;57.652;11.908;2022-12-07T16:38:20;1.65;;;0.90;;
26612;SDS011;14248;57.652;11.908;2022-12-07T16:40:46;0.85;;;0.45;;
26612;SDS011;14248;57.652;11.908;2022-12-07T16:43:13;1.45;;;0.85;;
26612;SDS011;14248;57.652;11.908;2022-12-07T16:45:40;3.65;;;1.30;;
26612;SDS011;14248;57.652;11.908;2022-12-07T16:48:07;2.10;;;1.17;;
26612;SDS011;14248;57.652;11.908;2022-12-07T16:50:33;1.88;;;0.85;;
26612;SDS011;14248;57.652;11.908;2022-12-07T16:52:59;1.50;;;1.00;;